Time;durP1;ratioP1;P1;durP2;ratioP2;P2;SDS_P1;SDS_P2;PMS_P1;PMS_P2;Temp;Humidity;BMP_temperature;BMP_pressure;BME280_temperature;BME280_humidity;BME280_pressure;Samples;Min_cycle;Max_cycle;Signal;HPM_P1;HPM_P2
2022/07/27 00:00:24;;;;;;;2.90;2.70;;;20.00;99.40;;;;;;5049245;28;20030;-80
2022/07/27 00:02:51;;;;;;;3.67;2.53;;;19.90;99.80;;;;;;5050948;28;20035;-83
2022/07/27 00:05:18;;;;;;;2.80;2.60;;;19.80;99.90;;;;;;5044063;28;20478;-82
2022/07/27 00:07:44;;;;;;;2.95;2.47;;;19.80;99.90;;;;;;5047389;28;20124;-82
2022/07/27 00:10:10;;;;;;;2.92;2.72;;;19.70;99.90;;;;;;5040418;28;20116;-80
2022/07/27 00:12:36;;;;;;;2.85;2.65;;;19.60;99.90;;;;;;5045936;28;20076;-80
2022/07/27 00:15:02;;;;;;;3.58;2.95;;;19.50;99.90;;;;;;5050512;28;20026;-81
2022/07/27 00:17:28;;;;;;;3.30;2.78;;;19.50;99.90;;;;;;5049898;28;20017;-81
2022/07/27 00:19:54;;;;;;;3.00;2.80;;;19.50;99.90;;;;;;5047397;28;20022;-81
2022/07/27 00:22:21;;;;;;;2.75;2.55;;;19.40;99.90;;;;;;5043390;28;20081;-83
2022/07/27 00:24:47;;;;;;;2.60;2.40;;;19.40;99.90;;;;;;5044627;28;20044;-83
2022/07/27 00:27:12;;;;;;;3.63;3.03;;;19.40;99.90;;;;;;5043180;28;20025;-83
2022/07/27 00:29:38;;;;;;;3.45;2.78;;;19.50;99.90;;;;;;5043652;28;20056;-81
2022/07/27 00:32:04;;;;;;;2.88;2.65;;;19.50;99.90;;;;;;5024783;28;20021;-81
2022/07/27 00:34:30;;;;;;;2.85;2.65;;;19.60;99.90;;;;;;5042057;28;20482;-81
2022/07/27 00:36:55;;;;;;;4.97;2.70;;;19.60;99.90;;;;;;5025095;28;20053;-83
2022/07/27 00:39:21;;;;;;;2.65;2.45;;;19.70;99.90;;;;;;5040292;28;20103;-83
2022/07/27 00:41:47;;;;;;;2.67;2.35;;;19.80;99.90;;;;;;5040324;28;20386;-82
2022/07/27 00:44:12;;;;;;;2.55;2.35;;;19.90;99.90;;;;;;5024607;28;20116;-83
2022/07/27 00:46:38;;;;;;;2.97;2.60;;;19.90;99.90;;;;;;5022795;28;20033;-84
2022/07/27 00:49:04;;;;;;;4.07;2.58;;;19.90;98.30;;;;;;5040218;28;20030;-84
2022/07/27 00:51:31;;;;;;;3.40;2.38;;;19.90;96.60;;;;;;5040079;28;20056;-83
2022/07/27 00:53:57;;;;;;;4.68;2.47;;;19.90;95.40;;;;;;5040201;28;20036;-83
2022/07/27 00:56:23;;;;;;;3.20;2.25;;;19.90;94.10;;;;;;5040143;28;20029;-82
2022/07/27 00:58:51;;;;;;;3.03;2.33;;;19.90;92.50;;;;;;5040134;28;20026;-83
2022/07/27 01:01:17;;;;;;;4.03;2.33;;;19.90;91.60;;;;;;5040894;28;20043;-81
2022/07/27 01:03:44;;;;;;;1.95;1.75;;;19.90;90.60;;;;;;5022693;28;20044;-83
2022/07/27 01:06:11;;;;;;;2.38;1.70;;;19.90;90.10;;;;;;5030195;28;20104;-82
2022/07/27 01:08:37;;;;;;;1.92;1.70;;;19.90;89.40;;;;;;5036226;28;20131;-81
2022/07/27 01:11:03;;;;;;;3.47;1.80;;;19.90;88.80;;;;;;5055174;28;20021;-81
2022/07/27 01:13:29;;;;;;;1.90;1.80;;;19.90;88.10;;;;;;5041594;28;20174;-83
2022/07/27 01:15:56;;;;;;;2.25;1.95;;;19.90;87.60;;;;;;5055112;28;20048;-81
2022/07/27 01:18:42;;;;;;;1.88;1.67;;;19.90;87.80;;;;;;5039919;28;20179;-81
2022/07/27 01:21:08;;;;;;;1.70;1.60;;;19.90;88.30;;;;;;5043525;28;20018;-81
2022/07/27 01:23:34;;;;;;;1.55;1.45;;;19.90;89.00;;;;;;5043213;28;20093;-80
2022/07/27 01:26:04;;;;;;;1.65;1.55;;;19.90;90.00;;;;;;5041011;28;20064;-82
2022/07/27 01:28:30;;;;;;;1.63;1.52;;;19.80;89.70;;;;;;5023801;28;20126;-83
2022/07/27 01:30:56;;;;;;;5.28;1.63;;;19.80;89.60;;;;;;5041522;28;20021;-81
2022/07/27 01:33:24;;;;;;;1.63;1.52;;;19.70;89.20;;;;;;5038980;28;20029;-83
2022/07/27 01:35:52;;;;;;;3.47;2.17;;;19.60;89.70;;;;;;5039645;28;20029;-83
2022/07/27 01:38:18;;;;;;;3.63;2.20;;;19.50;90.40;;;;;;5021904;28;20650;-82
2022/07/27 01:40:44;;;;;;;2.40;2.03;;;19.40;90.50;;;;;;5039879;28;20029;-82
2022/07/27 01:43:09;;;;;;;1.95;1.75;;;19.30;90.40;;;;;;5031056;28;20056;-79
2022/07/27 01:45:35;;;;;;;1.60;1.50;;;19.20;90.50;;;;;;5030952;28;20049;-82
2022/07/27 01:48:01;;;;;;;2.55;2.00;;;19.20;90.40;;;;;;5041126;28;20041;-83
2022/07/27 01:50:27;;;;;;;2.15;1.70;;;19.20;90.40;;;;;;5042217;28;20046;-83
2022/07/27 01:52:52;;;;;;;2.13;1.60;;;19.20;90.30;;;;;;5038095;28;20021;-83
2022/07/27 01:55:18;;;;;;;2.00;1.90;;;19.10;89.50;;;;;;5035460;28;20033;-81
2022/07/27 01:57:44;;;;;;;2.45;1.92;;;19.10;88.70;;;;;;5036282;28;20082;-82
2022/07/27 02:00:11;;;;;;;2.13;1.98;;;19.10;88.70;;;;;;5018101;28;20025;-82
2022/07/27 02:02:38;;;;;;;2.92;1.75;;;19.00;88.60;;;;;;5036152;28;20109;-78
2022/07/27 02:05:04;;;;;;;1.60;1.50;;;18.90;88.80;;;;;;5036713;28;20024;-83
2022/07/27 02:07:30;;;;;;;2.38;1.88;;;18.90;88.80;;;;;;5036466;28;20036;-83
2022/07/27 02:09:56;;;;;;;3.72;1.58;;;18.80;88.90;;;;;;5036129;28;20022;-83
2022/07/27 02:12:37;;;;;;;1.75;1.65;;;18.80;88.40;;;;;;5044563;28;20022;-83
2022/07/27 02:15:11;;;;;;;1.98;1.75;;;18.80;88.10;;;;;;5024057;28;20024;-84
2022/07/27 02:17:38;;;;;;;1.38;1.27;;;18.80;88.00;;;;;;5029527;28;20072;-82
2022/07/27 02:20:05;;;;;;;1.58;1.48;;;18.80;87.90;;;;;;5037675;28;20502;-83
2022/07/27 02:22:31;;;;;;;1.50;1.40;;;18.70;87.80;;;;;;5044097;28;20376;-83
2022/07/27 02:24:57;;;;;;;2.38;1.42;;;18.70;87.70;;;;;;5040428;28;20032;-81
2022/07/27 02:27:22;;;;;;;4.13;1.50;;;18.70;86.90;;;;;;5040078;28;20407;-83
2022/07/27 02:29:48;;;;;;;1.42;1.33;;;18.70;86.30;;;;;;5039742;28;20025;-83
2022/07/27 02:32:14;;;;;;;2.03;1.35;;;18.70;86.50;;;;;;5044693;28;20053;-84
2022/07/27 02:34:39;;;;;;;1.20;1.10;;;18.80;86.70;;;;;;5037139;23;20042;-82
2022/07/27 02:37:05;;;;;;;1.77;1.35;;;18.80;86.50;;;;;;5017294;28;20062;-82
2022/07/27 02:39:31;;;;;;;1.40;1.17;;;18.90;86.20;;;;;;5024068;28;20028;-82
2022/07/27 02:41:56;;;;;;;1.17;1.08;;;19.00;86.10;;;;;;5009216;28;20054;-82
2022/07/27 02:44:22;;;;;;;1.40;1.30;;;19.10;85.70;;;;;;5008438;28;20022;-81
2022/07/27 02:46:48;;;;;;;1.23;1.15;;;19.10;85.40;;;;;;5024845;28;20029;-81
2022/07/27 02:49:14;;;;;;;2.33;1.02;;;19.20;85.00;;;;;;5021709;28;20036;-82
2022/07/27 02:51:40;;;;;;;0.90;0.90;;;19.20;84.70;;;;;;5027363;28;20118;-81
2022/07/27 02:54:06;;;;;;;1.40;1.30;;;19.20;86.60;;;;;;5027579;28;20030;-81
2022/07/27 02:56:32;;;;;;;1.20;1.10;;;19.20;87.80;;;;;;5024942;28;20125;-82
2022/07/27 02:58:58;;;;;;;1.35;1.25;;;19.20;87.30;;;;;;5001141;28;20034;-84
2022/07/27 03:01:24;;;;;;;3.65;1.20;;;19.10;86.00;;;;;;5033471;28;20032;-81
2022/07/27 03:03:49;;;;;;;1.17;1.17;;;19.10;85.00;;;;;;5038630;28;20029;-82
2022/07/27 03:06:15;;;;;;;1.13;1.10;;;19.20;84.30;;;;;;5031348;28;20025;-82
2022/07/27 03:08:40;;;;;;;0.90;0.90;;;19.20;84.50;;;;;;5019556;28;20053;-82
2022/07/27 03:11:07;;;;;;;1.25;1.15;;;19.20;85.50;;;;;;5002418;28;20046;-81
2022/07/27 03:13:33;;;;;;;1.25;1.17;;;19.20;86.60;;;;;;5027404;28;20024;-82
2022/07/27 03:15:58;;;;;;;1.30;1.20;;;19.30;87.60;;;;;;5026945;28;20406;-82
2022/07/27 03:18:24;;;;;;;1.42;1.25;;;19.30;88.00;;;;;;5020659;28;20041;-82
2022/07/27 03:20:50;;;;;;;1.60;1.20;;;19.30;89.50;;;;;;5019810;28;20026;-83
2022/07/27 03:23:19;;;;;;;1.63;1.30;;;19.30;90.80;;;;;;5021738;28;20025;-82
2022/07/27 03:25:44;;;;;;;1.83;1.40;;;19.30;91.70;;;;;;5020752;28;20072;-82
2022/07/27 03:28:10;;;;;;;2.08;1.90;;;19.30;92.50;;;;;;5022248;28;20073;-81
2022/07/27 03:30:36;;;;;;;1.63;1.52;;;19.20;93.10;;;;;;5033346;28;20415;-82
2022/07/27 03:33:02;;;;;;;1.67;1.48;;;19.20;93.70;;;;;;5038931;28;20283;-82
2022/07/27 03:35:27;;;;;;;1.48;1.38;;;19.20;94.00;;;;;;5024455;28;20030;-80
2022/07/27 03:37:53;;;;;;;2.40;2.20;;;19.30;94.30;;;;;;5021363;28;20040;-82
2022/07/27 03:40:19;;;;;;;4.40;2.38;;;19.30;94.70;;;;;;5024596;28;20095;-81
2022/07/27 03:42:45;;;;;;;3.58;2.20;;;19.30;94.80;;;;;;5023951;28;20026;-81
2022/07/27 03:45:10;;;;;;;5.43;2.35;;;19.20;94.90;;;;;;5024273;28;20121;-83
2022/07/27 03:47:36;;;;;;;2.65;2.38;;;19.20;95.00;;;;;;5020520;28;20052;-84
2022/07/27 03:50:03;;;;;;;2.97;2.60;;;19.20;95.10;;;;;;5013843;28;20025;-83
2022/07/27 03:52:29;;;;;;;3.33;2.33;;;19.20;95.30;;;;;;5016982;28;20033;-82
2022/07/27 03:54:56;;;;;;;3.72;2.28;;;19.20;95.30;;;;;;5057647;28;20131;-80
2022/07/27 03:57:22;;;;;;;4.05;2.70;;;19.30;95.20;;;;;;5030857;28;20034;-83
2022/07/27 03:59:47;;;;;;;2.83;2.13;;;19.30;94.90;;;;;;5030390;28;20317;-84
2022/07/27 04:02:13;;;;;;;3.08;2.33;;;19.20;94.50;;;;;;5021919;28;20085;-83
2022/07/27 04:04:39;;;;;;;2.13;1.92;;;19.20;94.60;;;;;;5021907;28;20029;-82
2022/07/27 04:07:04;;;;;;;1.88;1.77;;;19.20;94.50;;;;;;5026475;28;20044;-80
2022/07/27 04:09:30;;;;;;;2.88;2.15;;;19.30;94.60;;;;;;5029045;28;20029;-83
2022/07/27 04:11:56;;;;;;;2.55;2.35;;;19.40;94.10;;;;;;5035512;28;20083;-82
2022/07/27 04:14:21;;;;;;;3.55;2.25;;;19.30;93.60;;;;;;5028849;28;20394;-82
2022/07/27 04:16:47;;;;;;;1.80;1.70;;;19.40;93.10;;;;;;5023300;28;20025;-83
2022/07/27 04:19:13;;;;;;;2.38;1.95;;;19.40;93.00;;;;;;5028863;28;20022;-82
2022/07/27 04:21:38;;;;;;;2.08;1.88;;;19.30;92.90;;;;;;4995005;28;20034;-83
2022/07/27 04:24:05;;;;;;;2.15;1.95;;;19.30;93.00;;;;;;5027291;28;20025;-81
2022/07/27 04:26:31;;;;;;;2.00;1.83;;;19.30;93.10;;;;;;5038918;28;20535;-82
2022/07/27 04:28:57;;;;;;;2.38;1.70;;;19.20;93.00;;;;;;5017386;28;20025;-82
2022/07/27 04:31:23;;;;;;;2.50;1.85;;;19.20;93.00;;;;;;5012927;28;20028;-84
2022/07/27 04:33:49;;;;;;;2.10;1.90;;;19.20;92.80;;;;;;5029810;28;20084;-82
2022/07/27 04:36:29;;;;;;;2.25;1.67;;;19.20;92.60;;;;;;5025570;28;20044;-84
2022/07/27 04:38:55;;;;;;;2.92;2.40;;;19.30;92.30;;;;;;5020562;28;20030;-82
2022/07/27 04:41:20;;;;;;;2.88;2.25;;;19.40;91.80;;;;;;5023191;28;20056;-82
2022/07/27 04:43:46;;;;;;;2.08;1.98;;;19.40;91.40;;;;;;5022986;28;20504;-82
2022/07/27 04:46:13;;;;;;;3.17;2.30;;;19.50;91.10;;;;;;5016525;28;20033;-83
2022/07/27 04:48:39;;;;;;;4.40;2.00;;;19.60;90.80;;;;;;5019689;28;20044;-82
2022/07/27 04:51:05;;;;;;;1.70;1.60;;;19.60;90.60;;;;;;5032622;28;20046;-81
2022/07/27 04:53:31;;;;;;;1.88;1.77;;;19.60;90.50;;;;;;5023280;28;20029;-83
2022/07/27 04:55:56;;;;;;;4.63;2.28;;;19.60;90.20;;;;;;5024053;28;20038;-85
2022/07/27 04:58:22;;;;;;;3.13;1.85;;;19.70;89.50;;;;;;5014371;28;20041;-82
2022/07/27 05:00:47;;;;;;;2.88;1.92;;;19.80;89.10;;;;;;5025993;28;20040;-83
2022/07/27 05:03:17;;;;;;;5.32;2.08;;;19.90;88.20;;;;;;5018511;28;20033;-83
2022/07/27 05:05:42;;;;;;;2.15;1.40;;;20.00;87.00;;;;;;5033641;28;20026;-84
2022/07/27 05:08:09;;;;;;;1.70;1.60;;;20.10;86.50;;;;;;5024253;28;20066;-82
2022/07/27 05:10:35;;;;;;;2.10;1.80;;;20.10;85.60;;;;;;5027233;28;20033;-80
2022/07/27 05:13:01;;;;;;;1.42;1.33;;;20.10;84.80;;;;;;5031421;28;20083;-79
2022/07/27 05:15:27;;;;;;;3.60;1.63;;;20.10;84.40;;;;;;5039543;28;20019;-84
2022/07/27 05:17:52;;;;;;;1.52;1.42;;;20.10;83.80;;;;;;5034366;28;20036;-81
2022/07/27 05:20:18;;;;;;;3.30;1.73;;;20.10;83.60;;;;;;5038641;28;20034;-79
2022/07/27 05:22:44;;;;;;;1.55;1.35;;;20.10;82.80;;;;;;5057389;28;20051;-81
2022/07/27 05:25:10;;;;;;;1.63;1.50;;;20.10;82.30;;;;;;5057605;28;20060;-81
2022/07/27 05:27:38;;;;;;;1.80;1.42;;;20.10;81.30;;;;;;5040750;28;20048;-81
2022/07/27 05:30:06;;;;;;;1.02;0.93;;;20.10;80.90;;;;;;5038892;28;20018;-82
2022/07/27 05:32:32;;;;;;;1.27;1.10;;;20.30;80.40;;;;;;5040272;28;20010;-81
2022/07/27 05:35:01;;;;;;;0.95;0.95;;;20.50;79.30;;;;;;5036247;28;20072;-81
2022/07/27 05:37:29;;;;;;;1.23;1.17;;;21.00;77.70;;;;;;5038984;28;20014;-80
2022/07/27 05:39:55;;;;;;;1.40;1.30;;;21.30;76.20;;;;;;5022988;28;20029;-81
2022/07/27 05:42:21;;;;;;;2.30;1.52;;;21.80;75.40;;;;;;4999265;28;20026;-83
2022/07/27 05:44:47;;;;;;;1.48;1.30;;;22.60;70.90;;;;;;5014106;28;20029;-81
2022/07/27 05:47:15;;;;;;;1.33;1.20;;;23.00;69.90;;;;;;5011431;28;20022;-82
2022/07/27 05:49:40;;;;;;;1.27;1.10;;;23.00;68.10;;;;;;5006318;28;20026;-84
2022/07/27 05:52:06;;;;;;;2.22;1.25;;;22.80;68.90;;;;;;5003813;28;20054;-84
2022/07/27 05:54:32;;;;;;;5.32;1.75;;;22.30;70.50;;;;;;5005180;28;20502;-83
2022/07/27 05:56:57;;;;;;;3.55;1.80;;;22.00;71.60;;;;;;5004275;28;20707;-84
2022/07/27 05:59:23;;;;;;;1.27;1.23;;;21.80;71.90;;;;;;5004382;28;20022;-83
2022/07/27 06:01:48;;;;;;;2.80;1.40;;;21.90;72.30;;;;;;5005821;28;20056;-82
2022/07/27 06:04:14;;;;;;;1.77;1.42;;;21.90;71.40;;;;;;5007907;28;20022;-82
2022/07/27 06:09:24;;;;;;;3.95;1.63;;;21.90;70.40;;;;;;5037555;28;20021;-80
2022/07/27 06:11:49;;;;;;;3.83;1.58;;;21.90;68.70;;;;;;5037637;28;20030;-80
2022/07/27 06:14:15;;;;;;;3.45;1.55;;;21.80;69.20;;;;;;5037247;28;20017;-81
2022/07/27 06:16:40;;;;;;;5.15;1.90;;;21.80;69.90;;;;;;5015800;28;20026;-83
2022/07/27 06:19:06;;;;;;;5.03;1.63;;;22.00;69.30;;;;;;5017185;28;20022;-83
2022/07/27 06:21:32;;;;;;;2.17;1.48;;;22.00;68.90;;;;;;5003407;28;20105;-85
2022/07/27 06:23:57;;;;;;;2.95;1.60;;;21.90;69.50;;;;;;5011833;28;20049;-83
2022/07/27 06:26:23;;;;;;;1.27;1.17;;;21.80;70.40;;;;;;5018674;28;20493;-84
2022/07/27 06:28:49;;;;;;;1.40;1.25;;;22.00;71.00;;;;;;4996537;28;20109;-83
2022/07/27 06:31:15;;;;;;;1.30;1.20;;;22.50;70.00;;;;;;5011419;28;20030;-83
2022/07/27 06:33:40;;;;;;;2.92;1.60;;;22.90;68.00;;;;;;5018302;28;20082;-84
2022/07/27 06:36:07;;;;;;;3.75;1.50;;;22.90;67.20;;;;;;5003255;28;20026;-84
2022/07/27 06:38:33;;;;;;;2.58;1.95;;;23.30;67.00;;;;;;5017144;28;20037;-83
2022/07/27 06:41:00;;;;;;;1.65;1.38;;;23.20;67.00;;;;;;5017269;28;20406;-83
2022/07/27 06:43:29;;;;;;;4.15;2.10;;;23.00;68.40;;;;;;4998679;28;20026;-84
2022/07/27 06:45:59;;;;;;;5.80;1.75;;;24.00;68.10;;;;;;5000459;28;20090;-84
2022/07/27 06:48:26;;;;;;;2.65;1.88;;;26.00;62.80;;;;;;5007185;28;20033;-82
2022/07/27 06:50:52;;;;;;;3.20;2.30;;;26.10;59.90;;;;;;5000931;28;20045;-85
2022/07/27 06:53:18;;;;;;;2.85;2.03;;;25.80;59.00;;;;;;5034361;28;20021;-85
2022/07/27 06:55:44;;;;;;;3.22;2.35;;;25.80;59.30;;;;;;5027068;28;20026;-85
2022/07/27 07:03:20;;;;;;;3.33;1.73;;;25.70;57.20;;;;;;3877874;26;20063;-84
2022/07/27 07:09:50;;;;;;;2.78;1.67;;;28.40;56.30;;;;;;4909280;29;20187;-83
2022/07/27 07:12:17;;;;;;;2.08;1.73;;;29.10;52.60;;;;;;4903312;29;20518;-84
2022/07/27 07:14:48;;;;;;;1.65;1.55;;;28.70;54.20;;;;;;4973279;28;20049;-84
2022/07/27 07:21:05;;;;;;;;;;;30.10;50.10;;;;;;4981055;28;20102;-82
2022/07/27 07:23:31;;;;;;;1.63;1.50;;;28.70;50.70;;;;;;4941946;29;19921;-83
2022/07/27 07:25:57;;;;;;;1.17;1.10;;;27.80;52.70;;;;;;4971474;28;20034;-83
2022/07/27 07:28:22;;;;;;;2.38;1.73;;;27.30;53.80;;;;;;4981036;28;20027;-80
2022/07/27 07:30:48;;;;;;;1.50;1.30;;;26.80;53.80;;;;;;4964993;28;20030;-83
2022/07/27 07:33:14;;;;;;;1.33;1.10;;;26.40;54.80;;;;;;4956378;29;20033;-84
2022/07/27 07:35:40;;;;;;;2.80;1.50;;;26.50;55.20;;;;;;4966072;28;20023;-84
2022/07/27 07:38:06;;;;;;;3.28;1.20;;;26.80;54.60;;;;;;4981924;28;20027;-83
2022/07/27 07:40:32;;;;;;;1.50;1.40;;;26.90;54.30;;;;;;4984496;28;20025;-83
2022/07/27 07:43:00;;;;;;;2.65;1.63;;;26.90;54.10;;;;;;4985582;28;20049;-84
2022/07/27 07:45:39;;;;;;;7.80;2.42;;;26.80;54.10;;;;;;5000393;28;20023;-84
2022/07/27 07:48:06;;;;;;;3.97;1.60;;;26.50;54.10;;;;;;5003134;28;20030;-83
2022/07/27 07:50:32;;;;;;;5.88;1.80;;;26.20;54.60;;;;;;4999190;28;20505;-82
2022/07/27 07:52:58;;;;;;;3.78;1.48;;;26.00;53.10;;;;;;4994319;28;20113;-83
2022/07/27 07:55:27;;;;;;;5.40;2.33;;;25.80;54.00;;;;;;4980650;28;20034;-85
2022/07/27 07:57:53;;;;;;;5.40;1.73;;;25.60;54.40;;;;;;4971924;28;20049;-83
2022/07/27 08:00:25;;;;;;;3.83;1.60;;;25.50;55.30;;;;;;4998871;28;20049;-84
2022/07/27 08:02:53;;;;;;;5.22;2.30;;;25.20;55.40;;;;;;4995350;28;20082;-84
2022/07/27 08:05:20;;;;;;;6.85;2.35;;;25.20;55.60;;;;;;4980496;28;20027;-83
2022/07/27 08:07:47;;;;;;;5.50;2.10;;;25.20;55.80;;;;;;4985649;28;20082;-83
2022/07/27 08:10:14;;;;;;;7.10;2.25;;;25.00;56.40;;;;;;5009401;28;20082;-83
2022/07/27 08:12:42;;;;;;;2.03;1.50;;;25.00;56.50;;;;;;5004542;28;20062;-83
2022/07/27 08:15:10;;;;;;;6.47;2.15;;;25.10;56.40;;;;;;4966002;28;20030;-83
2022/07/27 08:17:36;;;;;;;4.60;1.88;;;25.20;56.50;;;;;;4962839;28;20030;-81
2022/07/27 08:20:04;;;;;;;3.80;2.10;;;25.20;56.50;;;;;;4963775;28;20066;-83
2022/07/27 08:23:12;;;;;;;3.97;1.98;;;25.30;56.20;;;;;;4986586;28;20023;-83
2022/07/27 08:25:39;;;;;;;2.88;1.83;;;25.30;56.00;;;;;;4944526;28;20115;-84
2022/07/27 08:28:08;;;;;;;4.95;1.55;;;25.40;56.50;;;;;;4969677;28;20098;-83
2022/07/27 08:30:34;;;;;;;3.53;1.92;;;25.40;56.90;;;;;;4986026;28;20027;-83
2022/07/27 08:33:01;;;;;;;5.57;1.88;;;25.50;55.70;;;;;;4987182;28;20038;-84
2022/07/27 08:35:28;;;;;;;4.40;1.55;;;25.50;55.30;;;;;;4966244;28;20027;-84
2022/07/27 08:37:54;;;;;;;3.72;2.00;;;25.50;55.60;;;;;;4978611;28;20512;-84
2022/07/27 08:40:20;;;;;;;4.18;2.10;;;25.50;54.40;;;;;;4984889;28;20031;-83
2022/07/27 08:42:46;;;;;;;4.82;2.13;;;25.30;54.80;;;;;;4966419;28;20027;-84
2022/07/27 08:45:15;;;;;;;1.92;1.80;;;25.30;55.30;;;;;;4984150;28;20023;-83
2022/07/27 08:47:42;;;;;;;3.25;1.30;;;25.20;56.40;;;;;;4966316;28;20027;-83
2022/07/27 08:50:22;;;;;;;2.97;1.77;;;25.30;55.90;;;;;;4982544;28;20180;-84
2022/07/27 08:53:08;;;;;;;4.93;2.00;;;25.30;55.80;;;;;;4981393;28;20054;-84
2022/07/27 08:55:40;;;;;;;4.43;1.33;;;25.30;55.00;;;;;;4984766;28;20089;-84
2022/07/27 08:58:06;;;;;;;;;;;25.00;55.60;;;;;;4969128;28;20340;-85
2022/07/27 09:00:34;;;;;;;5.72;2.28;;;24.90;56.40;;;;;;4985583;28;20005;-84
2022/07/27 09:03:04;;;;;;;5.95;2.55;;;24.90;56.90;;;;;;4968695;28;20118;-82
2022/07/27 09:05:44;;;;;;;3.17;1.80;;;24.90;57.10;;;;;;4966812;28;20027;-84
2022/07/27 09:08:16;;;;;;;1.70;1.60;;;25.00;57.30;;;;;;4953341;28;20314;-83
2022/07/27 09:10:43;;;;;;;3.90;1.48;;;25.10;56.70;;;;;;4975403;28;20026;-83
2022/07/27 09:13:17;;;;;;;2.60;1.73;;;25.30;56.00;;;;;;4973013;28;20031;-82
2022/07/27 09:15:55;;;;;;;3.50;1.73;;;25.50;55.40;;;;;;4979619;28;20058;-83
2022/07/27 09:18:24;;;;;;;3.28;1.98;;;25.40;55.00;;;;;;4975557;28;20061;-83
2022/07/27 09:21:16;;;;;;;3.47;1.70;;;25.60;54.50;;;;;;4989222;28;20131;-83
2022/07/27 09:23:52;;;;;;;2.13;1.50;;;25.80;54.20;;;;;;4979609;28;20099;-82
2022/07/27 09:26:26;;;;;;;2.50;1.38;;;26.00;54.00;;;;;;4976528;28;20034;-83
2022/07/27 09:29:11;;;;;;;3.92;1.60;;;26.00;54.30;;;;;;4994478;28;20038;-83
2022/07/27 09:31:42;;;;;;;2.05;1.80;;;26.20;54.50;;;;;;4998402;28;20074;-82
2022/07/27 09:34:08;;;;;;;3.42;1.55;;;26.40;52.40;;;;;;4999173;28;20150;-83
2022/07/27 09:36:49;;;;;;;3.80;1.70;;;26.40;51.30;;;;;;4990371;28;20027;-83
2022/07/27 09:39:29;;;;;;;2.55;1.77;;;26.40;51.40;;;;;;4987963;28;20027;-82
2022/07/27 09:42:01;;;;;;;3.22;1.70;;;26.40;51.80;;;;;;4963557;28;20042;-81
2022/07/27 09:44:35;;;;;;;1.48;1.38;;;26.70;50.50;;;;;;4972008;28;20111;-84
2022/07/27 09:47:25;;;;;;;1.50;1.30;;;27.10;50.40;;;;;;4976699;28;20031;-85
2022/07/27 09:49:55;;;;;;;4.47;1.70;;;27.20;49.00;;;;;;4963213;28;20066;-85
2022/07/27 09:52:29;;;;;;;4.78;1.40;;;27.30;50.00;;;;;;4981371;28;20464;-83
2022/07/27 09:55:03;;;;;;;3.65;1.40;;;27.40;48.60;;;;;;4963137;28;20033;-84
2022/07/27 09:57:29;;;;;;;3.78;1.15;;;27.30;49.40;;;;;;4963545;28;20027;-83
2022/07/27 10:00:28;;;;;;;4.00;1.85;;;27.20;49.30;;;;;;4980145;28;20073;-85
2022/07/27 10:02:54;;;;;;;1.63;1.25;;;27.40;50.10;;;;;;4978219;28;20187;-83
2022/07/27 10:05:21;;;;;;;4.88;1.30;;;27.80;49.60;;;;;;4954206;29;20024;-84
2022/07/27 10:07:47;;;;;;;1.58;1.30;;;27.50;48.40;;;;;;4968815;28;20023;-83
2022/07/27 10:10:14;;;;;;;3.65;2.10;;;27.30;49.20;;;;;;4959817;28;20070;-84
2022/07/27 10:12:44;;;;;;;4.25;1.70;;;27.30;49.10;;;;;;4960201;28;20027;-84
2022/07/27 10:15:11;;;;;;;2.90;1.40;;;27.10;49.40;;;;;;4980131;28;20035;-84
2022/07/27 10:17:38;;;;;;;4.75;1.42;;;27.10;49.80;;;;;;4985077;28;20023;-84
2022/07/27 10:20:09;;;;;;;3.05;1.65;;;27.10;48.20;;;;;;4982594;28;20031;-84
2022/07/27 10:22:55;;;;;;;2.20;1.45;;;27.00;48.90;;;;;;4985568;28;20023;-83
2022/07/27 10:25:23;;;;;;;2.80;1.58;;;27.10;49.10;;;;;;4985685;28;20061;-82
2022/07/27 10:28:16;;;;;;;2.75;1.75;;;27.20;49.20;;;;;;4963928;28;20023;-84
2022/07/27 10:30:45;;;;;;;3.72;1.50;;;27.40;48.60;;;;;;4980687;28;20026;-83
2022/07/27 10:33:43;;;;;;;3.67;1.40;;;27.80;48.80;;;;;;4962931;28;20026;-85
2022/07/27 10:36:24;;;;;;;4.05;1.30;;;27.80;48.20;;;;;;4980690;28;20110;-87
2022/07/27 10:38:56;;;;;;;4.63;1.90;;;27.90;47.10;;;;;;4974521;28;20026;-83
2022/07/27 10:41:30;;;;;;;2.88;1.40;;;27.90;47.10;;;;;;4995480;28;20082;-82
2022/07/27 10:44:17;;;;;;;2.83;1.27;;;27.90;46.90;;;;;;4977329;28;20054;-83
2022/07/27 10:47:03;;;;;;;2.97;1.40;;;27.80;47.10;;;;;;4972003;29;20272;-83
2022/07/27 10:49:34;;;;;;;2.65;1.60;;;27.60;47.70;;;;;;4968277;29;20035;-83
2022/07/27 10:52:01;;;;;;;1.77;1.13;;;27.90;46.50;;;;;;4972105;29;20095;-84
2022/07/27 10:54:35;;;;;;;3.80;1.60;;;27.80;46.70;;;;;;4971664;28;20042;-83
2022/07/27 10:57:03;;;;;;;2.30;1.38;;;27.60;47.10;;;;;;4988301;28;20027;-84
2022/07/27 10:59:38;;;;;;;4.00;1.42;;;27.40;47.70;;;;;;4985123;28;20193;-82
2022/07/27 11:02:16;;;;;;;1.98;1.20;;;27.20;47.80;;;;;;4963034;28;20049;-83
2022/07/27 11:04:50;;;;;;;2.05;1.48;;;27.30;48.40;;;;;;4969904;28;20023;-83
2022/07/27 11:07:21;;;;;;;2.97;1.30;;;27.60;48.30;;;;;;4969644;28;20070;-81
2022/07/27 11:09:49;;;;;;;1.58;1.27;;;27.50;46.90;;;;;;4974798;28;20023;-83
2022/07/27 11:12:17;;;;;;;1.42;1.30;;;27.40;47.40;;;;;;4964997;28;20027;-82
2022/07/27 11:14:53;;;;;;;4.35;1.58;;;27.40;46.60;;;;;;4980275;28;20035;-82
2022/07/27 11:17:22;;;;;;;1.30;1.30;;;27.50;47.30;;;;;;5051306;22;20049;-83
2022/07/27 11:19:55;;;;;;;4.10;1.17;;;27.80;47.50;;;;;;5042437;28;20458;-86
2022/07/27 11:22:32;;;;;;;1.90;1.40;;;28.00;47.00;;;;;;5043015;28;20172;-85
2022/07/27 11:25:00;;;;;;;2.63;1.35;;;28.30;46.10;;;;;;5041573;28;20022;-83
2022/07/27 11:27:27;;;;;;;1.48;1.10;;;28.20;45.10;;;;;;5023894;28;20514;-83
2022/07/27 11:29:52;;;;;;;1.52;1.05;;;27.60;45.40;;;;;;5022938;28;20038;-84
2022/07/27 11:32:20;;;;;;;1.30;1.23;;;27.20;47.00;;;;;;5024067;28;20130;-84
2022/07/27 11:34:46;;;;;;;1.08;1.08;;;27.10;47.40;;;;;;5022973;28;20069;-87
2022/07/27 11:37:19;;;;;;;1.75;1.10;;;27.20;47.00;;;;;;5021796;28;20079;-84
2022/07/27 11:39:56;;;;;;;1.95;1.10;;;27.30;46.90;;;;;;5005297;28;20030;-83
2022/07/27 11:42:22;;;;;;;1.35;1.25;;;27.30;47.30;;;;;;5021221;28;20033;-86
2022/07/27 11:44:48;;;;;;;1.55;1.30;;;27.30;47.40;;;;;;5025096;28;20056;-81
2022/07/27 11:47:19;;;;;;;1.50;1.40;;;27.40;48.20;;;;;;5023126;28;20036;-81
2022/07/27 11:49:45;;;;;;;1.98;1.25;;;27.60;47.50;;;;;;5016086;28;20033;-83
2022/07/27 11:52:11;;;;;;;5.70;1.42;;;27.40;47.20;;;;;;5025953;28;20022;-84
2022/07/27 11:54:39;;;;;;;1.52;1.02;;;27.10;47.50;;;;;;5023987;28;20026;-83
2022/07/27 11:57:07;;;;;;;0.90;0.90;;;26.90;47.60;;;;;;5026292;28;20037;-87
2022/07/27 11:59:34;;;;;;;3.28;1.45;;;26.80;47.90;;;;;;5027104;28;20058;-85
2022/07/27 12:02:14;;;;;;;2.15;1.27;;;26.90;48.30;;;;;;5024560;28;20034;-80
2022/07/27 12:04:43;;;;;;;2.75;1.33;;;27.10;48.50;;;;;;5010690;28;20033;-85
2022/07/27 12:07:15;;;;;;;1.70;1.00;;;27.40;48.60;;;;;;5025863;28;20422;-85
2022/07/27 12:09:56;;;;;;;3.67;1.40;;;27.60;47.90;;;;;;5032173;28;20119;-86
2022/07/27 12:12:22;;;;;;;2.05;1.40;;;27.70;48.00;;;;;;5005487;28;20134;-85
2022/07/27 12:14:53;;;;;;;3.65;1.50;;;27.30;47.30;;;;;;5027095;28;20026;-84
2022/07/27 12:17:29;;;;;;;1.67;1.20;;;27.20;48.50;;;;;;5020034;28;20037;-82
2022/07/27 12:20:00;;;;;;;2.25;1.23;;;27.30;48.70;;;;;;5032992;28;20073;-81
2022/07/27 12:22:27;;;;;;;;;;;27.20;48.00;;;;;;5029107;28;20069;-82
2022/07/27 12:24:54;;;;;;;2.13;1.30;;;27.10;48.20;;;;;;5030589;28;19913;-82
2022/07/27 12:27:21;;;;;;;2.67;1.40;;;27.00;48.60;;;;;;5027370;28;20025;-81
2022/07/27 12:29:57;;;;;;;1.40;1.35;;;26.90;49.10;;;;;;5011197;28;20052;-82
2022/07/27 12:32:24;;;;;;;7.65;1.50;;;26.80;48.80;;;;;;5030042;28;20422;-83
2022/07/27 12:34:50;;;;;;;1.92;1.30;;;26.60;49.10;;;;;;5031132;28;20030;-83
2022/07/27 12:37:16;;;;;;;2.15;1.15;;;26.60;49.60;;;;;;5019370;28;20030;-83
2022/07/27 12:39:44;;;;;;;4.03;1.20;;;26.70;49.70;;;;;;5028764;28;20025;-83
2022/07/27 12:42:14;;;;;;;2.00;1.20;;;26.90;49.40;;;;;;5029513;28;20032;-82
2022/07/27 12:44:42;;;;;;;2.58;1.48;;;26.90;49.20;;;;;;5009662;28;20022;-82
2022/07/27 12:50:14;;;;;;;1.90;1.40;;;26.90;48.90;;;;;;5026458;28;20095;-81
2022/07/27 12:52:51;;;;;;;2.20;1.60;;;26.60;49.40;;;;;;5013498;28;20025;-81
2022/07/27 12:55:18;;;;;;;1.60;1.50;;;26.50;50.00;;;;;;5035658;28;20069;-82
2022/07/27 12:57:45;;;;;;;1.60;1.33;;;26.40;50.10;;;;;;5026615;28;20018;-82
2022/07/27 13:00:14;;;;;;;5.45;1.30;;;26.40;49.50;;;;;;5026567;28;20025;-82
2022/07/27 13:02:39;;;;;;;8.18;1.42;;;26.70;49.20;;;;;;5025763;28;20030;-80
2022/07/27 13:05:07;;;;;;;1.98;1.52;;;27.10;48.60;;;;;;5029068;28;20034;-81
2022/07/27 13:07:34;;;;;;;3.00;1.30;;;27.00;47.90;;;;;;5008292;28;20038;-82
2022/07/27 13:10:00;;;;;;;3.95;1.58;;;26.90;48.80;;;;;;4991780;28;20030;-81
2022/07/27 13:12:26;;;;;;;1.58;1.23;;;26.90;48.50;;;;;;5026869;28;20054;-82